sensor_id;sensor_type;location;lat;lon;timestamp;pressure;altitude;pressure_sealevel;temperature;humidity
55757;BME280;41676;44.610;44.078;2022-08-24T00:03:23;100403.97;;;20.41;88.29
55757;BME280;41676;44.610;44.078;2022-08-24T00:08:24;100420.66;;;20.50;88.93
55757;BME280;41676;44.610;44.078;2022-08-24T00:13:25;100432.44;;;20.56;89.15
55757;BME280;41676;44.610;44.078;2022-08-24T00:18:27;100434.63;;;20.47;88.74
55757;BME280;41676;44.610;44.078;2022-08-24T00:23:28;100400.66;;;20.27;89.08
55757;BME280;41676;44.610;44.078;2022-08-24T00:28:29;100405.00;;;20.28;89.28
55757;BME280;41676;44.610;44.078;2022-08-24T00:33:30;100390.75;;;20.10;89.81
55757;BME280;41676;44.610;44.078;2022-08-24T00:38:31;100364.28;;;19.88;90.18
55757;BME280;41676;44.610;44.078;2022-08-24T00:43:34;100413.88;;;20.17;90.08
55757;BME280;41676;44.610;44.078;2022-08-24T00:48:39;100436.53;;;20.28;91.71
55757;BME280;41676;44.610;44.078;2022-08-24T00:53:54;100403.41;;;20.09;93.78
55757;BME280;41676;44.610;44.078;2022-08-24T00:59:12;100435.00;;;20.20;92.09
55757;BME280;41676;44.610;44.078;2022-08-24T01:04:20;100436.00;;;20.08;92.88
55757;BME280;41676;44.610;44.078;2022-08-24T01:09:22;100408.41;;;19.94;92.74
55757;BME280;41676;44.610;44.078;2022-08-24T01:14:23;100352.03;;;19.55;92.25
55757;BME280;41676;44.610;44.078;2022-08-24T01:19:36;100450.31;;;20.08;96.07
55757;BME280;41676;44.610;44.078;2022-08-24T01:24:38;100446.41;;;20.04;92.60
55757;BME280;41676;44.610;44.078;2022-08-24T01:29:41;100439.22;;;19.98;93.23
55757;BME280;41676;44.610;44.078;2022-08-24T01:34:42;100444.41;;;19.99;93.48
55757;BME280;41676;44.610;44.078;2022-08-24T01:39:45;100364.19;;;19.46;93.73
55757;BME280;41676;44.610;44.078;2022-08-24T01:44:46;100360.16;;;19.37;93.50
55757;BME280;41676;44.610;44.078;2022-08-24T01:49:48;100434.38;;;19.88;93.62
55757;BME280;41676;44.610;44.078;2022-08-24T01:54:49;100394.13;;;19.56;93.72
55757;BME280;41676;44.610;44.078;2022-08-24T01:59:50;100446.91;;;19.82;94.41
55757;BME280;41676;44.610;44.078;2022-08-24T02:04:51;100460.00;;;19.79;94.87
55757;BME280;41676;44.610;44.078;2022-08-24T02:09:52;100376.75;;;19.34;94.90
55757;BME280;41676;44.610;44.078;2022-08-24T02:14:53;100458.00;;;19.74;95.34
55757;BME280;41676;44.610;44.078;2022-08-24T02:19:54;100447.88;;;19.70;95.29
55757;BME280;41676;44.610;44.078;2022-08-24T02:24:55;100421.66;;;19.58;95.23
55757;BME280;41676;44.610;44.078;2022-08-24T02:29:56;100423.31;;;19.59;95.51
55757;BME280;41676;44.610;44.078;2022-08-24T02:34:57;100364.34;;;19.33;95.15
55757;BME280;41676;44.610;44.078;2022-08-24T02:39:57;100454.31;;;19.87;95.39
55757;BME280;41676;44.610;44.078;2022-08-24T02:44:59;100455.94;;;19.88;96.22
55757;BME280;41676;44.610;44.078;2022-08-24T02:50:03;100453.56;;;19.98;96.17
55757;BME280;41676;44.610;44.078;2022-08-24T02:55:05;100434.91;;;19.97;95.10
55757;BME280;41676;44.610;44.078;2022-08-24T03:00:11;100360.13;;;19.74;95.09
55757;BME280;41676;44.610;44.078;2022-08-24T03:05:12;100453.50;;;20.47;93.36
55757;BME280;41676;44.610;44.078;2022-08-24T03:10:14;100431.25;;;20.63;92.30
55757;BME280;41676;44.610;44.078;2022-08-24T03:15:15;100442.81;;;21.06;91.09
55757;BME280;41676;44.610;44.078;2022-08-24T03:20:19;100352.53;;;20.66;89.87
55757;BME280;41676;44.610;44.078;2022-08-24T03:25:21;100453.50;;;21.24;89.34
55757;BME280;41676;44.610;44.078;2022-08-24T03:30:24;100392.69;;;20.86;89.32
55757;BME280;41676;44.610;44.078;2022-08-24T03:35:25;100428.25;;;21.07;89.11
55757;BME280;41676;44.610;44.078;2022-08-24T03:40:27;100431.78;;;21.19;88.70
55757;BME280;41676;44.610;44.078;2022-08-24T03:45:28;100462.31;;;21.55;87.74
55757;BME280;41676;44.610;44.078;2022-08-24T03:50:29;100310.59;;;20.87;86.69
55757;BME280;41676;44.610;44.078;2022-08-24T03:55:30;100362.78;;;21.80;84.08
55757;BME280;41676;44.610;44.078;2022-08-24T04:00:31;100368.22;;;23.10;78.81
55757;BME280;41676;44.610;44.078;2022-08-24T04:05:32;100459.78;;;24.67;74.01
55757;BME280;41676;44.610;44.078;2022-08-24T04:10:33;100477.97;;;25.31;70.44
55757;BME280;41676;44.610;44.078;2022-08-24T04:15:38;100470.13;;;25.92;65.99
55757;BME280;41676;44.610;44.078;2022-08-24T04:20:41;100463.66;;;26.14;65.71
55757;BME280;41676;44.610;44.078;2022-08-24T04:25:45;100466.44;;;26.39;63.44
55757;BME280;41676;44.610;44.078;2022-08-24T04:30:48;100464.84;;;26.54;62.71
55757;BME280;41676;44.610;44.078;2022-08-24T04:35:51;100452.88;;;26.75;61.38
55757;BME280;41676;44.610;44.078;2022-08-24T04:40:52;100474.66;;;26.85;59.40
55757;BME280;41676;44.610;44.078;2022-08-24T04:45:53;100484.47;;;26.92;58.91
55757;BME280;41676;44.610;44.078;2022-08-24T04:50:54;100481.22;;;26.84;57.40
55757;BME280;41676;44.610;44.078;2022-08-24T04:55:55;100449.00;;;26.40;55.73
55757;BME280;41676;44.610;44.078;2022-08-24T05:00:56;100392.84;;;25.99;56.09
55757;BME280;41676;44.610;44.078;2022-08-24T05:05:57;100456.06;;;26.31;55.85
55757;BME280;41676;44.610;44.078;2022-08-24T05:10:57;100467.81;;;26.42;55.32
55757;BME280;41676;44.610;44.078;2022-08-24T05:15:58;100476.25;;;26.40;54.13
55757;BME280;41676;44.610;44.078;2022-08-24T05:21:00;100483.66;;;26.60;53.34
55757;BME280;41676;44.610;44.078;2022-08-24T05:31:11;100480.66;;;26.82;50.54
55757;BME280;41676;44.610;44.078;2022-08-24T05:36:25;100404.91;;;26.64;49.83
55757;BME280;41676;44.610;44.078;2022-08-24T05:41:26;100420.66;;;27.08;49.32
55757;BME280;41676;44.610;44.078;2022-08-24T05:46:29;100478.09;;;27.58;47.96
55757;BME280;41676;44.610;44.078;2022-08-24T05:51:31;100375.66;;;27.21;47.24
55757;BME280;41676;44.610;44.078;2022-08-24T05:56:32;100446.03;;;27.99;45.16
55757;BME280;41676;44.610;44.078;2022-08-24T06:01:33;100401.06;;;27.86;44.78
55757;BME280;41676;44.610;44.078;2022-08-24T06:06:34;100457.34;;;28.66;44.03
55757;BME280;41676;44.610;44.078;2022-08-24T06:11:37;100444.59;;;28.85;41.49
55757;BME280;41676;44.610;44.078;2022-08-24T06:16:42;100447.88;;;29.17;38.54
55757;BME280;41676;44.610;44.078;2022-08-24T06:21:44;100429.25;;;29.19;38.66
55757;BME280;41676;44.610;44.078;2022-08-24T06:26:46;100399.50;;;29.36;36.48
55757;BME280;41676;44.610;44.078;2022-08-24T06:32:05;100431.34;;;29.75;34.16
55757;BME280;41676;44.610;44.078;2022-08-24T06:37:06;100436.63;;;29.90;31.80
55757;BME280;41676;44.610;44.078;2022-08-24T06:42:06;100349.06;;;29.66;31.69
55757;BME280;41676;44.610;44.078;2022-08-24T06:47:07;100404.06;;;30.45;30.92
55757;BME280;41676;44.610;44.078;2022-08-24T06:52:08;100410.28;;;30.65;30.15
55757;BME280;41676;44.610;44.078;2022-08-24T06:57:10;100415.59;;;30.75;30.84
55757;BME280;41676;44.610;44.078;2022-08-24T07:02:11;100401.16;;;31.02;29.42
55757;BME280;41676;44.610;44.078;2022-08-24T07:07:15;100406.53;;;31.21;28.08
55757;BME280;41676;44.610;44.078;2022-08-24T07:12:16;100312.72;;;30.78;28.03
55757;BME280;41676;44.610;44.078;2022-08-24T07:17:17;100404.53;;;31.41;26.77
55757;BME280;41676;44.610;44.078;2022-08-24T07:22:18;100383.97;;;31.52;26.51
55757;BME280;41676;44.610;44.078;2022-08-24T07:27:19;100352.03;;;31.56;25.87
55757;BME280;41676;44.610;44.078;2022-08-24T07:32:20;100382.94;;;31.75;25.29
55757;BME280;41676;44.610;44.078;2022-08-24T07:37:21;100359.28;;;31.88;24.66
55757;BME280;41676;44.610;44.078;2022-08-24T07:42:22;100378.00;;;32.22;24.37
55757;BME280;41676;44.610;44.078;2022-08-24T07:47:24;100358.63;;;32.27;23.84
55757;BME280;41676;44.610;44.078;2022-08-24T07:52:24;100385.00;;;32.28;23.39
55757;BME280;41676;44.610;44.078;2022-08-24T07:57:25;100349.00;;;32.39;23.88
55757;BME280;41676;44.610;44.078;2022-08-24T08:02:27;100258.59;;;31.83;22.69
55757;BME280;41676;44.610;44.078;2022-08-24T08:07:27;100359.00;;;32.57;22.67
55757;BME280;41676;44.610;44.078;2022-08-24T08:12:28;100331.38;;;32.62;22.91
55757;BME280;41676;44.610;44.078;2022-08-24T08:17:29;100348.22;;;32.69;22.42
55757;BME280;41676;44.610;44.078;2022-08-24T08:22:30;100284.91;;;32.29;22.52
55757;BME280;41676;44.610;44.078;2022-08-24T08:27:49;100320.13;;;32.81;21.77
55757;BME280;41676;44.610;44.078;2022-08-24T08:32:50;100265.91;;;32.82;22.02
55757;BME280;41676;44.610;44.078;2022-08-24T08:37:51;100302.78;;;33.29;22.13
55757;BME280;41676;44.610;44.078;2022-08-24T08:42:58;100327.00;;;33.58;21.54
55757;BME280;41676;44.610;44.078;2022-08-24T08:59:26;100327.97;;;33.62;20.81
55757;BME280;41676;44.610;44.078;2022-08-24T09:25:38;100297.69;;;33.54;19.58
55757;BME280;41676;44.610;44.078;2022-08-24T09:30:57;100317.44;;;33.99;20.46
55757;BME280;41676;44.610;44.078;2022-08-24T09:36:07;100305.44;;;33.95;19.42
55757;BME280;41676;44.610;44.078;2022-08-24T09:41:42;100312.53;;;34.31;20.01
55757;BME280;41676;44.610;44.078;2022-08-24T10:03:02;100243.72;;;33.79;19.73
55757;BME280;41676;44.610;44.078;2022-08-24T10:19:11;100310.63;;;34.23;19.22
55757;BME280;41676;44.610;44.078;2022-08-24T10:35:09;100239.28;;;33.95;19.78
55757;BME280;41676;44.610;44.078;2022-08-24T10:40:15;100278.50;;;34.18;18.88
55757;BME280;41676;44.610;44.078;2022-08-24T11:12:27;100220.97;;;34.17;17.73
55757;BME280;41676;44.610;44.078;2022-08-24T11:17:31;100212.72;;;34.08;18.57
55757;BME280;41676;44.610;44.078;2022-08-24T11:22:41;100272.81;;;34.32;18.03
55757;BME280;41676;44.610;44.078;2022-08-24T11:28:02;100280.09;;;34.28;18.67
55757;BME280;41676;44.610;44.078;2022-08-24T11:33:18;100207.22;;;33.91;19.77
55757;BME280;41676;44.610;44.078;2022-08-24T11:38:31;100253.31;;;34.37;19.11
55757;BME280;41676;44.610;44.078;2022-08-24T11:43:57;100263.94;;;34.65;18.65
55757;BME280;41676;44.610;44.078;2022-08-24T11:49:24;100283.13;;;34.52;18.74
55757;BME280;41676;44.610;44.078;2022-08-24T11:54:42;100193.63;;;33.77;19.48
55757;BME280;41676;44.610;44.078;2022-08-24T12:00:03;100263.59;;;34.19;18.65
55757;BME280;41676;44.610;44.078;2022-08-24T12:20:50;100259.28;;;33.75;19.25
55757;BME280;41676;44.610;44.078;2022-08-24T12:25:58;100214.22;;;33.53;18.89
55757;BME280;41676;44.610;44.078;2022-08-24T12:31:15;100169.69;;;33.25;18.75
55757;BME280;41676;44.610;44.078;2022-08-24T12:47:28;100245.03;;;33.55;18.71
55757;BME280;41676;44.610;44.078;2022-08-24T13:03:07;100187.34;;;32.98;18.81
55757;BME280;41676;44.610;44.078;2022-08-24T13:08:40;100167.50;;;32.79;18.31
55757;BME280;41676;44.610;44.078;2022-08-24T13:13:47;100263.25;;;33.08;18.63
55757;BME280;41676;44.610;44.078;2022-08-24T13:18:51;100187.69;;;32.57;19.11
55757;BME280;41676;44.610;44.078;2022-08-24T13:29:32;100254.28;;;32.85;19.84
55757;BME280;41676;44.610;44.078;2022-08-24T13:34:38;100253.28;;;32.81;18.92
55757;BME280;41676;44.610;44.078;2022-08-24T14:01:26;100200.41;;;31.81;20.21
55757;BME280;41676;44.610;44.078;2022-08-24T14:06:48;100185.38;;;31.56;20.45
55757;BME280;41676;44.610;44.078;2022-08-24T14:12:02;100244.06;;;31.83;20.40
55757;BME280;41676;44.610;44.078;2022-08-24T14:33:33;100256.53;;;31.16;21.52
55757;BME280;41676;44.610;44.078;2022-08-24T14:38:54;100263.06;;;31.07;21.40
55757;BME280;41676;44.610;44.078;2022-08-24T14:44:21;100283.09;;;30.93;21.64
55757;BME280;41676;44.610;44.078;2022-08-24T14:50:11;100283.81;;;30.85;21.36
55757;BME280;41676;44.610;44.078;2022-08-24T14:55:41;100274.41;;;30.59;21.42
55757;BME280;41676;44.610;44.078;2022-08-24T15:11:24;100256.56;;;29.82;21.69
55757;BME280;41676;44.610;44.078;2022-08-24T15:16:42;100300.94;;;29.98;22.08
55757;BME280;41676;44.610;44.078;2022-08-24T15:32:10;100316.00;;;29.63;22.52
55757;BME280;41676;44.610;44.078;2022-08-24T15:37:24;100271.19;;;28.92;22.66
55757;BME280;41676;44.610;44.078;2022-08-24T15:42:28;100322.19;;;29.06;23.22
55757;BME280;41676;44.610;44.078;2022-08-24T15:47:33;100333.25;;;28.91;23.47
55757;BME280;41676;44.610;44.078;2022-08-24T15:52:46;100336.41;;;28.79;23.60
55757;BME280;41676;44.610;44.078;2022-08-24T15:57:48;100322.16;;;28.53;23.75
55757;BME280;41676;44.610;44.078;2022-08-24T16:02:48;100352.22;;;28.53;23.79
55757;BME280;41676;44.610;44.078;2022-08-24T16:13:24;100350.03;;;28.21;24.40
55757;BME280;41676;44.610;44.078;2022-08-24T16:23:56;100338.53;;;27.85;25.17
55757;BME280;41676;44.610;44.078;2022-08-24T16:28:59;100356.03;;;27.79;26.42
55757;BME280;41676;44.610;44.078;2022-08-24T16:39:21;100366.31;;;27.37;32.64
55757;BME280;41676;44.610;44.078;2022-08-24T16:44:22;100368.84;;;27.28;37.05
55757;BME280;41676;44.610;44.078;2022-08-24T16:49:22;100377.28;;;27.27;39.07
55757;BME280;41676;44.610;44.078;2022-08-24T16:54:24;100387.13;;;27.18;40.76
55757;BME280;41676;44.610;44.078;2022-08-24T16:59:31;100395.84;;;27.09;43.60
55757;BME280;41676;44.610;44.078;2022-08-24T17:04:32;100386.88;;;26.89;43.53
55757;BME280;41676;44.610;44.078;2022-08-24T17:09:36;100400.53;;;26.68;45.58
55757;BME280;41676;44.610;44.078;2022-08-24T17:14:37;100372.72;;;26.40;45.49
55757;BME280;41676;44.610;44.078;2022-08-24T17:19:39;100391.53;;;26.22;46.90
55757;BME280;41676;44.610;44.078;2022-08-24T17:24:40;100396.16;;;26.21;47.82
55757;BME280;41676;44.610;44.078;2022-08-24T17:29:42;100407.56;;;26.03;49.78
55757;BME280;41676;44.610;44.078;2022-08-24T17:34:44;100308.28;;;25.27;49.68
55757;BME280;41676;44.610;44.078;2022-08-24T17:39:48;100381.03;;;25.62;50.31
55757;BME280;41676;44.610;44.078;2022-08-24T17:44:51;100361.34;;;25.35;51.10
55757;BME280;41676;44.610;44.078;2022-08-24T17:49:51;100381.47;;;25.39;51.82
55757;BME280;41676;44.610;44.078;2022-08-24T17:54:52;100406.47;;;25.36;52.04
55757;BME280;41676;44.610;44.078;2022-08-24T17:59:53;100407.78;;;25.23;52.02
55757;BME280;41676;44.610;44.078;2022-08-24T18:04:54;100395.69;;;25.09;52.39
55757;BME280;41676;44.610;44.078;2022-08-24T18:09:56;100392.31;;;24.91;53.11
55757;BME280;41676;44.610;44.078;2022-08-24T18:14:59;100384.88;;;24.71;53.58
55757;BME280;41676;44.610;44.078;2022-08-24T18:20:01;100398.66;;;24.65;54.68
55757;BME280;41676;44.610;44.078;2022-08-24T18:25:03;100393.16;;;24.54;55.16
55757;BME280;41676;44.610;44.078;2022-08-24T18:30:06;100400.66;;;24.42;57.02
55757;BME280;41676;44.610;44.078;2022-08-24T18:35:07;100298.59;;;23.82;56.63
55757;BME280;41676;44.610;44.078;2022-08-24T18:40:09;100373.22;;;24.11;57.68
55757;BME280;41676;44.610;44.078;2022-08-24T18:45:11;100384.38;;;24.15;57.83
55757;BME280;41676;44.610;44.078;2022-08-24T18:50:12;100390.47;;;24.00;58.41
55757;BME280;41676;44.610;44.078;2022-08-24T18:55:15;100392.06;;;23.96;59.56
55757;BME280;41676;44.610;44.078;2022-08-24T19:00:16;100361.41;;;23.74;59.74
55757;BME280;41676;44.610;44.078;2022-08-24T19:05:20;100310.38;;;23.21;60.79
55757;BME280;41676;44.610;44.078;2022-08-24T19:10:33;100331.44;;;23.36;61.41
55757;BME280;41676;44.610;44.078;2022-08-24T19:15:35;100384.03;;;23.62;60.88
55757;BME280;41676;44.610;44.078;2022-08-24T19:20:42;100365.59;;;23.37;62.24
55757;BME280;41676;44.610;44.078;2022-08-24T19:25:44;100386.00;;;23.45;62.32
55757;BME280;41676;44.610;44.078;2022-08-24T19:30:45;100271.50;;;22.72;62.90
55757;BME280;41676;44.610;44.078;2022-08-24T19:35:46;100315.03;;;22.87;63.75
55757;BME280;41676;44.610;44.078;2022-08-24T19:40:47;100358.44;;;23.09;64.47
55757;BME280;41676;44.610;44.078;2022-08-24T19:45:48;100288.44;;;22.62;64.78
55757;BME280;41676;44.610;44.078;2022-08-24T19:51:15;100331.97;;;22.77;64.79
55757;BME280;41676;44.610;44.078;2022-08-24T19:56:17;100387.38;;;23.04;65.23
55757;BME280;41676;44.610;44.078;2022-08-24T20:01:27;100366.31;;;22.94;68.06
55757;BME280;41676;44.610;44.078;2022-08-24T20:06:29;100379.31;;;22.92;66.64
55757;BME280;41676;44.610;44.078;2022-08-24T20:11:33;100374.81;;;22.81;67.84
55757;BME280;41676;44.610;44.078;2022-08-24T20:16:37;100295.19;;;22.26;69.30
55757;BME280;41676;44.610;44.078;2022-08-24T20:21:38;100365.38;;;22.66;69.56
55757;BME280;41676;44.610;44.078;2022-08-24T20:26:41;100323.72;;;22.33;71.09
55757;BME280;41676;44.610;44.078;2022-08-24T20:31:43;100363.56;;;22.55;70.59
55757;BME280;41676;44.610;44.078;2022-08-24T20:36:47;100368.00;;;22.44;72.82
55757;BME280;41676;44.610;44.078;2022-08-24T20:41:49;100338.97;;;22.23;71.98
55757;BME280;41676;44.610;44.078;2022-08-24T20:46:52;100278.47;;;21.83;72.41
55757;BME280;41676;44.610;44.078;2022-08-24T20:51:54;100250.84;;;21.64;72.28
55757;BME280;41676;44.610;44.078;2022-08-24T20:56:55;100350.63;;;22.23;72.77
55757;BME280;41676;44.610;44.078;2022-08-24T21:01:55;100318.66;;;21.92;72.62
55757;BME280;41676;44.610;44.078;2022-08-24T21:06:56;100355.47;;;22.09;72.54
55757;BME280;41676;44.610;44.078;2022-08-24T21:11:57;100324.53;;;21.88;72.40
55757;BME280;41676;44.610;44.078;2022-08-24T21:16:58;100352.19;;;22.07;72.39
55757;BME280;41676;44.610;44.078;2022-08-24T21:21:59;100348.59;;;22.02;72.21
55757;BME280;41676;44.610;44.078;2022-08-24T21:27:00;100307.06;;;21.79;71.95
55757;BME280;41676;44.610;44.078;2022-08-24T21:32:02;100331.69;;;21.95;71.99
55757;BME280;41676;44.610;44.078;2022-08-24T21:37:21;100255.72;;;21.51;71.41
55757;BME280;41676;44.610;44.078;2022-08-24T21:42:22;100272.84;;;21.56;71.32
55757;BME280;41676;44.610;44.078;2022-08-24T21:47:23;100250.72;;;21.42;71.04
55757;BME280;41676;44.610;44.078;2022-08-24T21:52:24;100335.34;;;21.88;70.75
55757;BME280;41676;44.610;44.078;2022-08-24T21:57:25;100327.16;;;21.83;70.42
55757;BME280;41676;44.610;44.078;2022-08-24T22:02:29;100332.75;;;21.94;69.46
55757;BME280;41676;44.610;44.078;2022-08-24T22:07:30;100271.41;;;21.37;68.94
55757;BME280;41676;44.610;44.078;2022-08-24T22:12:31;100299.06;;;21.56;68.73
55757;BME280;41676;44.610;44.078;2022-08-24T22:17:32;100298.41;;;21.49;68.38
55757;BME280;41676;44.610;44.078;2022-08-24T22:22:33;100283.16;;;21.42;68.04
55757;BME280;41676;44.610;44.078;2022-08-24T22:27:34;100300.03;;;21.50;67.63
55757;BME280;41676;44.610;44.078;2022-08-24T22:32:34;100286.66;;;21.43;67.23
55757;BME280;41676;44.610;44.078;2022-08-24T22:37:35;100308.13;;;21.50;66.58
55757;BME280;41676;44.610;44.078;2022-08-24T22:42:36;100210.94;;;20.97;65.74
55757;BME280;41676;44.610;44.078;2022-08-24T22:47:37;100299.81;;;21.51;65.66
55757;BME280;41676;44.610;44.078;2022-08-24T22:52:38;100288.78;;;21.41;64.97
55757;BME280;41676;44.610;44.078;2022-08-24T22:57:39;100208.34;;;20.91;64.54
55757;BME280;41676;44.610;44.078;2022-08-24T23:02:40;100269.88;;;21.29;63.88
55757;BME280;41676;44.610;44.078;2022-08-24T23:07:41;100278.72;;;21.36;63.56
55757;BME280;41676;44.610;44.078;2022-08-24T23:12:42;100275.38;;;21.34;63.24
55757;BME280;41676;44.610;44.078;2022-08-24T23:17:43;100272.03;;;21.27;63.06
55757;BME280;41676;44.610;44.078;2022-08-24T23:22:44;100268.13;;;21.23;63.00
55757;BME280;41676;44.610;44.078;2022-08-24T23:27:47;100262.66;;;21.18;62.71
55757;BME280;41676;44.610;44.078;2022-08-24T23:32:48;100274.13;;;21.25;62.72
55757;BME280;41676;44.610;44.078;2022-08-24T23:37:49;100244.13;;;21.10;62.86
55757;BME280;41676;44.610;44.078;2022-08-24T23:42:50;100165.94;;;20.63;63.02
55757;BME280;41676;44.610;44.078;2022-08-24T23:47:51;100268.72;;;21.25;63.41
55757;BME280;41676;44.610;44.078;2022-08-24T23:52:52;100184.47;;;20.71;64.03
55757;BME280;41676;44.610;44.078;2022-08-24T23:57:53;100252.34;;;21.15;64.63
